This is the latest recevied weather packets stored in our database for station/object DF9PV-5. If no packets are shown the sender has not sent any weather packets the latest 10 day(s).
| Time | Temp. | Humidity | Pressure | Rain* | Wind** | Luminosity | Snow |
|---|---|---|---|---|---|---|---|
| 1777209320 | 18.33° C | 38% | 1023.1 hPa | 0 mm | - | - | - |
| 1777206644 | 18.33° C | 43% | 1023.3 hPa | 0 mm | - | - | - |
| 1777205149 | 18.89° C | 42% | 1023.7 hPa | 0 mm | - | - | - |
| 1777204233 | 18.89° C | 42% | 1023.7 hPa | 0 mm | - | - | - |
| 1777203952 | 18.33° C | 44% | 1023.7 hPa | 0 mm | - | - | - |
| 1777201529 | 16.11° C | 49% | 1024.1 hPa | 0 mm | - | - | - |
| 1777199456 | 14.44° C | 54% | 1024.4 hPa | 0 mm | - | - | - |
| 1777197919 | 13.89° C | 54% | 1024.6 hPa | 0 mm | - | - | - |
| 1777197321 | 15.56° C | 51% | 1024.6 hPa | 0 mm | - | - | - |
| 1777197023 | 15° C | 52% | 1024.6 hPa | 0 mm | - | - | - |
| 1777195865 | 15° C | 52% | 1024.7 hPa | 0 mm | - | - | - |
| 1777195529 | 13.33° C | 56% | 1024.7 hPa | 0 mm | - | - | - |
| 1777191945 | 12.78° C | 56% | 1024.7 hPa | 0 mm | - | - | - |
| 1777184729 | 9.44° C | 66% | 1024.4 hPa | 0 mm | - | - | - |
| 1777182029 | 5.56° C | 77% | 1024.1 hPa | 0 mm | - | - | - |
| 1777181132 | 3.89° C | 83% | 1023.8 hPa | 0 mm | - | - | - |
| 1777179057 | 3.33° C | 86% | 1023.3 hPa | 0 mm | - | - | - |
| 1777176653 | 3.33° C | 86% | 1023 hPa | 0 mm | - | - | - |
| 1777172425 | 3.89° C | 84% | 1022.3 hPa | 0 mm | - | - | - |
| 1777171550 | 3.89° C | 83% | 1022.2 hPa | 0 mm | - | - | - |
| 1777170335 | 3.89° C | 81% | 1022.1 hPa | 0 mm | - | - | - |
| 1777169721 | 3.89° C | 81% | 1022.1 hPa | 0 mm | - | - | - |
| 1777168537 | 4.44° C | 81% | 1021.9 hPa | 0 mm | - | - | - |
| 1777168223 | 4.44° C | 80% | 1021.9 hPa | 0 mm | - | - | - |
| 1777167933 | 4.44° C | 80% | 1021.9 hPa | 0 mm | - | - | - |
* Rain latest hour (hover to see other rain measurements)
** Current wind speed in m/s (hover to see current wind gust speed)